Tropical Cyclones
[Index]
Main Index Home Page Stock Weather Photos Extreme Storms Discussion Storm News and Storm Chasing Reports Tropical Cyclones / Hurricanes / Typhoons Weather Data and Links Wild Fires / Bushfires Weather Observation Techniques Weather Picture Catalogue Tornado Pictures and Reports Stock Video Footage and DVDs for sale
Season 1963-1964 Tropical Cyclone DORA Track Map
Season 1963-1964 Summaries: [BoM-AU] [JTWC-AU] [JTWC-SIO] [JTWC-SPAC] [JTWC-SH]
<<- Previous TC | JTWC 1963-1964 Season | Next TC ->>

click for intensity scale information  Lat/long Grid: Show Hide

 Date Labels: Show Hide

Joint Typhoon Warning Centre Cyclone Data

Name: DORA
Number: 515 / 6413

28 Jan 1964 00:00 UTC to 11 Feb 1964 18:00 UTC

    date/time    lat    long     hPa   cat  kts
1964-01-28 00    9.2   131.3                  20          
1964-01-28 06    9.4   131.8                  20          
1964-01-28 12    9.5   132.4                  25          
1964-01-28 18    9.8   132.9                  25          
1964-01-29 00   10.0   133.4                  25          
1964-01-29 06   10.2   134.2                  20          
1964-01-29 12   10.3   134.9                  15          
1964-01-29 18   10.5   135.4                  10          
1964-01-30 00   10.7   135.9                              
1964-01-30 06   10.9   136.4                              
1964-01-30 12   11.1   136.9                              
1964-01-30 18   11.4   137.2                              
1964-01-31 00   11.7   137.6                              
1964-01-31 06   12.0   137.9                              
1964-01-31 12   12.4   138.3                              
1964-01-31 18   12.8   138.5                              
1964-02-01 00   13.1   138.7                              
1964-02-01 06   13.3   139.0                              
1964-02-01 12   13.4   139.3                              
1964-02-01 18   13.6   139.6                              
1964-02-02 00   13.7   140.0                              
1964-02-02 06   13.9   140.3                              
1964-02-02 12   14.1   140.7                              
1964-02-02 18   14.4   141.0                              
1964-02-03 00   14.8   141.4                              
1964-02-03 06   15.2   141.6                              
1964-02-03 12   15.6   141.8                              
1964-02-03 18   16.0   141.9                              
1964-02-04 00   16.4   141.9                              
1964-02-04 06   16.8   141.8                              
1964-02-04 12   17.2   141.8                              
1964-02-04 18   17.5   141.8                              
1964-02-05 00   17.9   141.8                              
1964-02-05 06   18.3   141.8                              
1964-02-05 12   18.8   141.8                              
1964-02-05 18   19.2   141.6                              
1964-02-06 00   19.4   141.2                              
1964-02-06 06   19.4   140.8                              
1964-02-06 12   19.2   140.3                              
1964-02-06 18   18.9   140.0                              
1964-02-07 00   18.7   139.6                              
1964-02-07 06   18.5   139.4                              
1964-02-07 12   18.4   139.3                              
1964-02-07 18   18.2   139.3                              
1964-02-08 00   18.1   139.6                              
1964-02-08 06   18.0   140.1                              
1964-02-08 12   18.0   140.6                              
1964-02-08 18   17.9   141.0                              
1964-02-09 00   17.8   141.5                              
1964-02-09 06   17.7   142.1                              
1964-02-09 12   17.8   143.3                              
1964-02-09 18   18.2   145.8                              
1964-02-10 00   18.6   148.2                              
1964-02-10 06   19.0   150.0                              
1964-02-10 12   19.5   151.7                              
1964-02-10 18   19.7   153.2                              
1964-02-11 00   19.8   154.3                              
1964-02-11 06   19.9   155.2                              
1964-02-11 12   19.9   155.9                              
1964-02-11 18   20.0   156.7                              
Winds are 1-min average.

Tropical cyclone tracks developed by Michael Bath using data from the Joint Typhoon Warning Centre Best Tracks and Google Maps.


[Australian Severe Weather index] [Copyright Notice] [Email Contacts] [Search This Site] [Privacy Policy]
Document: tropical_cyclone_dora.htm Updated: 18 September 2016